sensor_id;sensor_type;location;lat;lon;timestamp;temperature;humidity
7325;DHT22;3703;48.016;7.802;2023-07-31T00:02:20;20.30;99.90
7325;DHT22;3703;48.016;7.802;2023-07-31T00:10:40;20.30;99.90
7325;DHT22;3703;48.016;7.802;2023-07-31T00:13:25;21.60;1.00
7325;DHT22;3703;48.016;7.802;2023-07-31T00:18:59;20.60;1.00
7325;DHT22;3703;48.016;7.802;2023-07-31T00:21:45;21.10;1.00
7325;DHT22;3703;48.016;7.802;2023-07-31T00:30:04;20.40;99.90
7325;DHT22;3703;48.016;7.802;2023-07-31T00:35:38;20.80;99.90
7325;DHT22;3703;48.016;7.802;2023-07-31T00:52:16;20.00;99.90
7325;DHT22;3703;48.016;7.802;2023-07-31T00:55:04;20.00;99.90
7325;DHT22;3703;48.016;7.802;2023-07-31T00:57:51;20.00;99.90
7325;DHT22;3703;48.016;7.802;2023-07-31T01:06:15;19.80;99.90
7325;DHT22;3703;48.016;7.802;2023-07-31T01:09:16;19.80;99.90
7325;DHT22;3703;48.016;7.802;2023-07-31T01:11:52;19.70;99.90
7325;DHT22;3703;48.016;7.802;2023-07-31T01:19:15;19.60;99.90
7325;DHT22;3703;48.016;7.802;2023-07-31T01:22:00;19.50;99.90
7325;DHT22;3703;48.016;7.802;2023-07-31T01:24:48;19.50;99.90
7325;DHT22;3703;48.016;7.802;2023-07-31T01:27:28;19.50;99.90
7325;DHT22;3703;48.016;7.802;2023-07-31T01:30:03;19.50;99.90
7325;DHT22;3703;48.016;7.802;2023-07-31T01:32:36;19.40;99.90
7325;DHT22;3703;48.016;7.802;2023-07-31T01:35:06;19.20;99.90
7325;DHT22;3703;48.016;7.802;2023-07-31T01:42:30;19.40;99.90
7325;DHT22;3703;48.016;7.802;2023-07-31T01:59:43;19.10;1.00
7325;DHT22;3703;48.016;7.802;2023-07-31T02:16:57;19.00;1.00
7325;DHT22;3703;48.016;7.802;2023-07-31T02:19:24;19.30;99.90
7325;DHT22;3703;48.016;7.802;2023-07-31T02:21:51;19.00;99.90
7325;DHT22;3703;48.016;7.802;2023-07-31T02:24:18;19.00;1.00
7325;DHT22;3703;48.016;7.802;2023-07-31T02:26:46;18.90;1.00
7325;DHT22;3703;48.016;7.802;2023-07-31T02:29:13;19.00;1.00
7325;DHT22;3703;48.016;7.802;2023-07-31T02:31:40;19.00;1.00
7325;DHT22;3703;48.016;7.802;2023-07-31T02:34:08;19.00;99.90
7325;DHT22;3703;48.016;7.802;2023-07-31T02:36:35;19.10;99.90
7325;DHT22;3703;48.016;7.802;2023-07-31T02:39:02;19.10;99.90
7325;DHT22;3703;48.016;7.802;2023-07-31T02:41:30;19.10;99.90
7325;DHT22;3703;48.016;7.802;2023-07-31T02:43:57;19.10;99.90
7325;DHT22;3703;48.016;7.802;2023-07-31T02:46:24;19.20;99.90
7325;DHT22;3703;48.016;7.802;2023-07-31T02:48:51;19.10;1.00
7325;DHT22;3703;48.016;7.802;2023-07-31T02:51:20;19.10;99.90
7325;DHT22;3703;48.016;7.802;2023-07-31T02:53:47;19.10;99.90
7325;DHT22;3703;48.016;7.802;2023-07-31T02:56:15;19.00;99.90
7325;DHT22;3703;48.016;7.802;2023-07-31T02:58:42;19.00;99.90
7325;DHT22;3703;48.016;7.802;2023-07-31T03:01:09;18.90;99.90
7325;DHT22;3703;48.016;7.802;2023-07-31T03:03:36;18.90;99.90
7325;DHT22;3703;48.016;7.802;2023-07-31T03:06:03;18.70;99.90
7325;DHT22;3703;48.016;7.802;2023-07-31T03:08:32;18.60;99.90
7325;DHT22;3703;48.016;7.802;2023-07-31T03:10:59;18.60;99.90
7325;DHT22;3703;48.016;7.802;2023-07-31T03:13:26;18.50;99.90
7325;DHT22;3703;48.016;7.802;2023-07-31T03:15:53;18.40;99.90
7325;DHT22;3703;48.016;7.802;2023-07-31T03:18:20;18.10;99.90
7325;DHT22;3703;48.016;7.802;2023-07-31T03:21:06;18.00;99.90
7325;DHT22;3703;48.016;7.802;2023-07-31T03:23:53;17.90;99.90
7325;DHT22;3703;48.016;7.802;2023-07-31T03:26:39;18.00;99.90
7325;DHT22;3703;48.016;7.802;2023-07-31T03:29:25;18.10;99.90
7325;DHT22;3703;48.016;7.802;2023-07-31T03:32:11;18.20;99.90
7325;DHT22;3703;48.016;7.802;2023-07-31T03:34:57;18.50;99.90
7325;DHT22;3703;48.016;7.802;2023-07-31T03:37:43;18.70;99.90
7325;DHT22;3703;48.016;7.802;2023-07-31T03:40:30;18.90;99.90
7325;DHT22;3703;48.016;7.802;2023-07-31T03:43:16;19.20;15.30
7325;DHT22;3703;48.016;7.802;2023-07-31T03:46:01;19.00;1.00
7325;DHT22;3703;48.016;7.802;2023-07-31T03:48:47;19.00;1.00
7325;DHT22;3703;48.016;7.802;2023-07-31T03:51:33;19.30;1.00
7325;DHT22;3703;48.016;7.802;2023-07-31T03:54:19;19.00;1.00
7325;DHT22;3703;48.016;7.802;2023-07-31T03:57:06;19.00;1.00
7325;DHT22;3703;48.016;7.802;2023-07-31T03:59:52;19.10;1.00
7325;DHT22;3703;48.016;7.802;2023-07-31T04:02:38;18.90;99.90
7325;DHT22;3703;48.016;7.802;2023-07-31T04:05:24;18.80;99.90
7325;DHT22;3703;48.016;7.802;2023-07-31T04:08:10;18.60;99.90
7325;DHT22;3703;48.016;7.802;2023-07-31T04:10:55;18.60;1.00
7325;DHT22;3703;48.016;7.802;2023-07-31T04:13:43;18.70;1.00
7325;DHT22;3703;48.016;7.802;2023-07-31T04:16:28;18.80;1.00
7325;DHT22;3703;48.016;7.802;2023-07-31T04:19:14;18.80;1.00
7325;DHT22;3703;48.016;7.802;2023-07-31T04:22:00;18.90;32.00
7325;DHT22;3703;48.016;7.802;2023-07-31T04:24:46;18.90;1.00
7325;DHT22;3703;48.016;7.802;2023-07-31T04:27:32;18.90;1.00
7325;DHT22;3703;48.016;7.802;2023-07-31T04:30:19;18.70;1.00
7325;DHT22;3703;48.016;7.802;2023-07-31T04:33:05;18.40;1.00
7325;DHT22;3703;48.016;7.802;2023-07-31T04:35:54;18.40;1.00
7325;DHT22;3703;48.016;7.802;2023-07-31T04:38:39;18.40;1.00
7325;DHT22;3703;48.016;7.802;2023-07-31T04:41:07;18.50;1.00
7325;DHT22;3703;48.016;7.802;2023-07-31T04:43:34;18.30;9.70
7325;DHT22;3703;48.016;7.802;2023-07-31T04:46:06;18.40;1.00
7325;DHT22;3703;48.016;7.802;2023-07-31T04:48:33;18.20;1.00
7325;DHT22;3703;48.016;7.802;2023-07-31T04:51:00;18.20;13.10
7325;DHT22;3703;48.016;7.802;2023-07-31T04:53:27;18.20;62.80
7325;DHT22;3703;48.016;7.802;2023-07-31T04:55:54;18.40;99.90
7325;DHT22;3703;48.016;7.802;2023-07-31T04:58:21;18.50;1.00
7325;DHT22;3703;48.016;7.802;2023-07-31T05:00:48;18.60;1.00
7325;DHT22;3703;48.016;7.802;2023-07-31T05:03:17;18.70;1.00
7325;DHT22;3703;48.016;7.802;2023-07-31T05:05:44;18.60;1.00
7325;DHT22;3703;48.016;7.802;2023-07-31T05:08:11;18.50;1.00
7325;DHT22;3703;48.016;7.802;2023-07-31T05:10:38;18.50;1.00
7325;DHT22;3703;48.016;7.802;2023-07-31T05:13:05;18.50;1.00
7325;DHT22;3703;48.016;7.802;2023-07-31T05:15:32;18.40;22.10
7325;DHT22;3703;48.016;7.802;2023-07-31T05:18:01;18.50;25.60
7325;DHT22;3703;48.016;7.802;2023-07-31T05:20:29;18.50;32.30
7325;DHT22;3703;48.016;7.802;2023-07-31T05:22:56;18.50;1.00
7325;DHT22;3703;48.016;7.802;2023-07-31T05:25:23;18.60;1.00
7325;DHT22;3703;48.016;7.802;2023-07-31T05:27:50;18.60;1.00
7325;DHT22;3703;48.016;7.802;2023-07-31T05:30:17;18.80;1.00
7325;DHT22;3703;48.016;7.802;2023-07-31T05:32:45;18.60;1.00
7325;DHT22;3703;48.016;7.802;2023-07-31T05:35:12;18.80;59.30
7325;DHT22;3703;48.016;7.802;2023-07-31T05:37:40;18.70;1.00
7325;DHT22;3703;48.016;7.802;2023-07-31T05:40:08;18.70;1.00
7325;DHT22;3703;48.016;7.802;2023-07-31T05:42:35;18.80;1.00
7325;DHT22;3703;48.016;7.802;2023-07-31T05:45:05;18.90;1.00
7325;DHT22;3703;48.016;7.802;2023-07-31T05:47:33;18.90;1.00
7325;DHT22;3703;48.016;7.802;2023-07-31T05:50:00;18.90;1.00
7325;DHT22;3703;48.016;7.802;2023-07-31T05:52:27;18.80;1.00
7325;DHT22;3703;48.016;7.802;2023-07-31T05:54:56;18.70;1.00
7325;DHT22;3703;48.016;7.802;2023-07-31T05:57:23;18.60;47.20
7325;DHT22;3703;48.016;7.802;2023-07-31T05:59:51;18.60;36.30
7325;DHT22;3703;48.016;7.802;2023-07-31T06:02:19;18.70;99.50
7325;DHT22;3703;48.016;7.802;2023-07-31T06:04:46;18.90;1.00
7325;DHT22;3703;48.016;7.802;2023-07-31T06:07:13;18.40;1.00
7325;DHT22;3703;48.016;7.802;2023-07-31T06:09:40;18.50;15.40
7325;DHT22;3703;48.016;7.802;2023-07-31T06:12:08;18.80;1.00
7325;DHT22;3703;48.016;7.802;2023-07-31T06:14:36;18.80;68.00
7325;DHT22;3703;48.016;7.802;2023-07-31T06:17:03;18.90;45.20
7325;DHT22;3703;48.016;7.802;2023-07-31T06:19:31;18.80;1.00
7325;DHT22;3703;48.016;7.802;2023-07-31T06:21:58;18.90;1.00
7325;DHT22;3703;48.016;7.802;2023-07-31T06:24:25;19.10;1.00
7325;DHT22;3703;48.016;7.802;2023-07-31T06:26:52;19.00;1.00
7325;DHT22;3703;48.016;7.802;2023-07-31T06:29:21;19.00;1.00
7325;DHT22;3703;48.016;7.802;2023-07-31T06:31:48;18.90;1.00
7325;DHT22;3703;48.016;7.802;2023-07-31T06:34:15;18.70;1.00
7325;DHT22;3703;48.016;7.802;2023-07-31T06:36:42;18.80;6.00
7325;DHT22;3703;48.016;7.802;2023-07-31T06:39:09;18.90;1.00
7325;DHT22;3703;48.016;7.802;2023-07-31T06:41:36;18.80;1.00
7325;DHT22;3703;48.016;7.802;2023-07-31T06:44:03;18.90;18.40
7325;DHT22;3703;48.016;7.802;2023-07-31T06:46:32;18.90;1.00
7325;DHT22;3703;48.016;7.802;2023-07-31T06:48:59;19.10;1.00
7325;DHT22;3703;48.016;7.802;2023-07-31T06:51:26;19.20;1.00
7325;DHT22;3703;48.016;7.802;2023-07-31T06:53:53;19.50;1.00
7325;DHT22;3703;48.016;7.802;2023-07-31T06:56:21;19.50;1.00
7325;DHT22;3703;48.016;7.802;2023-07-31T06:58:49;19.60;1.00
7325;DHT22;3703;48.016;7.802;2023-07-31T07:01:16;19.70;99.90
7325;DHT22;3703;48.016;7.802;2023-07-31T07:03:44;19.70;99.90
7325;DHT22;3703;48.016;7.802;2023-07-31T07:06:12;19.50;99.90
7325;DHT22;3703;48.016;7.802;2023-07-31T07:08:39;19.90;64.70
7325;DHT22;3703;48.016;7.802;2023-07-31T07:11:06;19.70;1.00
7325;DHT22;3703;48.016;7.802;2023-07-31T07:13:33;19.60;1.00
7325;DHT22;3703;48.016;7.802;2023-07-31T07:16:00;19.50;99.90
7325;DHT22;3703;48.016;7.802;2023-07-31T07:18:27;19.50;99.90
7325;DHT22;3703;48.016;7.802;2023-07-31T07:20:57;19.50;99.90
7325;DHT22;3703;48.016;7.802;2023-07-31T07:23:24;19.70;99.90
7325;DHT22;3703;48.016;7.802;2023-07-31T07:25:52;19.80;1.00
7325;DHT22;3703;48.016;7.802;2023-07-31T07:28:19;19.60;21.30
7325;DHT22;3703;48.016;7.802;2023-07-31T07:30:51;19.50;1.00
7325;DHT22;3703;48.016;7.802;2023-07-31T07:33:19;19.60;99.90
7325;DHT22;3703;48.016;7.802;2023-07-31T07:35:46;19.80;34.00
7325;DHT22;3703;48.016;7.802;2023-07-31T07:38:15;19.90;77.90
7325;DHT22;3703;48.016;7.802;2023-07-31T07:40:42;19.90;99.90
7325;DHT22;3703;48.016;7.802;2023-07-31T07:43:09;19.20;99.90
7325;DHT22;3703;48.016;7.802;2023-07-31T07:45:36;20.10;1.00
7325;DHT22;3703;48.016;7.802;2023-07-31T07:48:04;20.10;99.90
7325;DHT22;3703;48.016;7.802;2023-07-31T07:50:31;20.20;99.90
7325;DHT22;3703;48.016;7.802;2023-07-31T07:52:58;20.40;1.00
7325;DHT22;3703;48.016;7.802;2023-07-31T07:55:27;20.50;1.00
7325;DHT22;3703;48.016;7.802;2023-07-31T07:57:55;20.60;1.00
7325;DHT22;3703;48.016;7.802;2023-07-31T08:00:23;20.40;7.90
7325;DHT22;3703;48.016;7.802;2023-07-31T08:02:50;20.50;99.90
7325;DHT22;3703;48.016;7.802;2023-07-31T08:05:17;20.60;99.90
7325;DHT22;3703;48.016;7.802;2023-07-31T08:07:44;19.70;1.00
7325;DHT22;3703;48.016;7.802;2023-07-31T08:10:11;20.60;1.00
7325;DHT22;3703;48.016;7.802;2023-07-31T08:12:39;20.50;1.00
7325;DHT22;3703;48.016;7.802;2023-07-31T08:15:09;20.60;99.90
7325;DHT22;3703;48.016;7.802;2023-07-31T08:17:37;20.50;99.90
7325;DHT22;3703;48.016;7.802;2023-07-31T08:20:05;20.50;99.90
7325;DHT22;3703;48.016;7.802;2023-07-31T08:22:33;20.50;99.90
7325;DHT22;3703;48.016;7.802;2023-07-31T08:25:00;20.60;99.90
7325;DHT22;3703;48.016;7.802;2023-07-31T08:27:31;20.60;1.00
7325;DHT22;3703;48.016;7.802;2023-07-31T08:30:00;20.50;1.00
7325;DHT22;3703;48.016;7.802;2023-07-31T08:32:32;20.40;1.00
7325;DHT22;3703;48.016;7.802;2023-07-31T08:34:59;20.40;1.00
7325;DHT22;3703;48.016;7.802;2023-07-31T08:37:26;20.50;1.00
7325;DHT22;3703;48.016;7.802;2023-07-31T08:39:53;20.60;99.90
7325;DHT22;3703;48.016;7.802;2023-07-31T08:42:20;20.70;1.00
7325;DHT22;3703;48.016;7.802;2023-07-31T08:44:48;20.70;99.90
7325;DHT22;3703;48.016;7.802;2023-07-31T08:47:17;20.70;99.90
7325;DHT22;3703;48.016;7.802;2023-07-31T08:49:46;20.70;1.00
7325;DHT22;3703;48.016;7.802;2023-07-31T08:52:13;20.60;99.90
7325;DHT22;3703;48.016;7.802;2023-07-31T08:54:41;20.70;99.90
7325;DHT22;3703;48.016;7.802;2023-07-31T08:57:09;20.80;1.00
7325;DHT22;3703;48.016;7.802;2023-07-31T08:59:38;21.10;1.00
7325;DHT22;3703;48.016;7.802;2023-07-31T09:02:07;21.30;99.90
7325;DHT22;3703;48.016;7.802;2023-07-31T09:04:36;21.20;7.80
7325;DHT22;3703;48.016;7.802;2023-07-31T09:07:05;21.50;99.90
7325;DHT22;3703;48.016;7.802;2023-07-31T09:09:34;21.60;1.00
7325;DHT22;3703;48.016;7.802;2023-07-31T09:12:01;21.90;99.90
7325;DHT22;3703;48.016;7.802;2023-07-31T09:14:29;22.00;99.90
7325;DHT22;3703;48.016;7.802;2023-07-31T09:16:58;21.70;1.00
7325;DHT22;3703;48.016;7.802;2023-07-31T09:19:26;21.50;99.90
7325;DHT22;3703;48.016;7.802;2023-07-31T09:21:55;21.60;52.60
7325;DHT22;3703;48.016;7.802;2023-07-31T09:24:26;21.70;1.00
7325;DHT22;3703;48.016;7.802;2023-07-31T09:26:54;21.90;1.00
7325;DHT22;3703;48.016;7.802;2023-07-31T09:29:23;21.90;1.00
7325;DHT22;3703;48.016;7.802;2023-07-31T09:31:50;22.00;1.00
7325;DHT22;3703;48.016;7.802;2023-07-31T09:34:17;21.90;1.00
7325;DHT22;3703;48.016;7.802;2023-07-31T09:36:46;21.90;1.00
7325;DHT22;3703;48.016;7.802;2023-07-31T09:39:17;21.80;99.90
7325;DHT22;3703;48.016;7.802;2023-07-31T09:41:48;21.70;99.90
7325;DHT22;3703;48.016;7.802;2023-07-31T09:44:20;22.10;99.90
7325;DHT22;3703;48.016;7.802;2023-07-31T09:46:48;21.60;99.90
7325;DHT22;3703;48.016;7.802;2023-07-31T09:49:15;21.90;1.00
7325;DHT22;3703;48.016;7.802;2023-07-31T09:51:42;22.00;1.00
7325;DHT22;3703;48.016;7.802;2023-07-31T09:54:10;22.30;1.00
7325;DHT22;3703;48.016;7.802;2023-07-31T09:56:43;22.10;10.90
7325;DHT22;3703;48.016;7.802;2023-07-31T09:59:11;22.00;1.00
7325;DHT22;3703;48.016;7.802;2023-07-31T10:01:40;22.10;99.90
7325;DHT22;3703;48.016;7.802;2023-07-31T10:04:09;22.10;99.90
7325;DHT22;3703;48.016;7.802;2023-07-31T10:06:37;22.10;99.90
7325;DHT22;3703;48.016;7.802;2023-07-31T10:09:06;22.50;99.90
7325;DHT22;3703;48.016;7.802;2023-07-31T10:11:38;22.70;1.00
7325;DHT22;3703;48.016;7.802;2023-07-31T10:14:09;22.60;1.00
7325;DHT22;3703;48.016;7.802;2023-07-31T10:16:38;22.50;1.00
7325;DHT22;3703;48.016;7.802;2023-07-31T10:19:07;22.50;1.00
7325;DHT22;3703;48.016;7.802;2023-07-31T10:21:35;22.70;1.00
7325;DHT22;3703;48.016;7.802;2023-07-31T10:24:04;22.70;1.00
7325;DHT22;3703;48.016;7.802;2023-07-31T10:26:32;22.50;99.90
7325;DHT22;3703;48.016;7.802;2023-07-31T10:29:01;22.60;1.00
7325;DHT22;3703;48.016;7.802;2023-07-31T10:31:28;22.80;1.00
7325;DHT22;3703;48.016;7.802;2023-07-31T10:33:57;22.60;1.00
7325;DHT22;3703;48.016;7.802;2023-07-31T10:36:26;22.60;99.90
7325;DHT22;3703;48.016;7.802;2023-07-31T10:38:55;22.90;99.90
7325;DHT22;3703;48.016;7.802;2023-07-31T10:41:28;23.00;99.90
7325;DHT22;3703;48.016;7.802;2023-07-31T10:43:58;23.00;99.90
7325;DHT22;3703;48.016;7.802;2023-07-31T10:46:28;22.90;99.90
7325;DHT22;3703;48.016;7.802;2023-07-31T10:48:59;23.30;99.90
7325;DHT22;3703;48.016;7.802;2023-07-31T10:51:33;23.20;1.00
7325;DHT22;3703;48.016;7.802;2023-07-31T10:54:11;22.90;1.00
7325;DHT22;3703;48.016;7.802;2023-07-31T10:56:38;22.90;1.00
7325;DHT22;3703;48.016;7.802;2023-07-31T10:59:06;22.90;46.90
7325;DHT22;3703;48.016;7.802;2023-07-31T11:01:55;23.10;99.90
7325;DHT22;3703;48.016;7.802;2023-07-31T11:04:23;23.60;99.40
7325;DHT22;3703;48.016;7.802;2023-07-31T11:06:58;23.20;1.00
7325;DHT22;3703;48.016;7.802;2023-07-31T11:09:28;23.20;99.90
7325;DHT22;3703;48.016;7.802;2023-07-31T11:11:57;23.40;99.90
7325;DHT22;3703;48.016;7.802;2023-07-31T11:14:25;23.40;99.90
7325;DHT22;3703;48.016;7.802;2023-07-31T11:16:54;23.00;94.00
7325;DHT22;3703;48.016;7.802;2023-07-31T11:19:21;22.80;99.90
7325;DHT22;3703;48.016;7.802;2023-07-31T11:21:49;23.00;99.90
7325;DHT22;3703;48.016;7.802;2023-07-31T11:24:17;22.90;99.90
7325;DHT22;3703;48.016;7.802;2023-07-31T11:26:49;23.30;1.00
7325;DHT22;3703;48.016;7.802;2023-07-31T11:29:17;23.30;99.90
7325;DHT22;3703;48.016;7.802;2023-07-31T11:31:44;23.60;99.90
7325;DHT22;3703;48.016;7.802;2023-07-31T11:34:14;23.30;99.90
7325;DHT22;3703;48.016;7.802;2023-07-31T11:36:53;23.20;99.90
7325;DHT22;3703;48.016;7.802;2023-07-31T11:39:21;23.20;99.90
7325;DHT22;3703;48.016;7.802;2023-07-31T11:41:48;23.20;99.90
7325;DHT22;3703;48.016;7.802;2023-07-31T11:44:15;23.50;99.90
7325;DHT22;3703;48.016;7.802;2023-07-31T11:46:42;23.50;99.90
7325;DHT22;3703;48.016;7.802;2023-07-31T11:49:10;23.30;99.90
7325;DHT22;3703;48.016;7.802;2023-07-31T11:51:39;24.30;99.90
7325;DHT22;3703;48.016;7.802;2023-07-31T11:54:06;23.00;99.90
7325;DHT22;3703;48.016;7.802;2023-07-31T11:56:33;23.20;1.00
7325;DHT22;3703;48.016;7.802;2023-07-31T11:59:01;23.30;99.90
7325;DHT22;3703;48.016;7.802;2023-07-31T12:01:31;23.30;99.90
7325;DHT22;3703;48.016;7.802;2023-07-31T12:03:58;23.60;99.90
7325;DHT22;3703;48.016;7.802;2023-07-31T12:06:32;23.70;99.90
7325;DHT22;3703;48.016;7.802;2023-07-31T12:09:03;23.80;99.90
7325;DHT22;3703;48.016;7.802;2023-07-31T12:11:30;23.80;99.90
7325;DHT22;3703;48.016;7.802;2023-07-31T12:13:57;24.00;99.90
7325;DHT22;3703;48.016;7.802;2023-07-31T12:16:26;24.10;63.50
7325;DHT22;3703;48.016;7.802;2023-07-31T12:18:54;24.20;99.90
7325;DHT22;3703;48.016;7.802;2023-07-31T12:21:22;24.50;65.90
7325;DHT22;3703;48.016;7.802;2023-07-31T12:23:49;24.40;1.00
7325;DHT22;3703;48.016;7.802;2023-07-31T12:26:20;24.40;7.40
7325;DHT22;3703;48.016;7.802;2023-07-31T12:28:50;24.60;21.30
7325;DHT22;3703;48.016;7.802;2023-07-31T12:31:18;25.00;1.00
7325;DHT22;3703;48.016;7.802;2023-07-31T12:33:48;24.90;1.00
7325;DHT22;3703;48.016;7.802;2023-07-31T12:36:18;24.90;1.00
7325;DHT22;3703;48.016;7.802;2023-07-31T12:38:48;25.50;1.00
7325;DHT22;3703;48.016;7.802;2023-07-31T12:41:16;25.50;1.00
7325;DHT22;3703;48.016;7.802;2023-07-31T12:43:45;25.00;99.90
7325;DHT22;3703;48.016;7.802;2023-07-31T12:46:12;25.00;99.90
7325;DHT22;3703;48.016;7.802;2023-07-31T12:48:40;25.10;99.90
7325;DHT22;3703;48.016;7.802;2023-07-31T12:51:07;24.80;99.90
7325;DHT22;3703;48.016;7.802;2023-07-31T12:53:34;25.00;99.90
7325;DHT22;3703;48.016;7.802;2023-07-31T12:56:02;25.30;99.90
7325;DHT22;3703;48.016;7.802;2023-07-31T12:58:29;25.60;99.90
7325;DHT22;3703;48.016;7.802;2023-07-31T13:00:58;25.60;99.90
7325;DHT22;3703;48.016;7.802;2023-07-31T13:03:25;25.40;99.90
7325;DHT22;3703;48.016;7.802;2023-07-31T13:05:55;25.50;99.90
7325;DHT22;3703;48.016;7.802;2023-07-31T13:08:22;25.10;99.90
7325;DHT22;3703;48.016;7.802;2023-07-31T13:10:50;24.70;99.90
7325;DHT22;3703;48.016;7.802;2023-07-31T13:13:18;25.10;99.90
7325;DHT22;3703;48.016;7.802;2023-07-31T13:15:58;25.30;99.90
7325;DHT22;3703;48.016;7.802;2023-07-31T13:18:26;25.40;99.90
7325;DHT22;3703;48.016;7.802;2023-07-31T13:20:53;25.30;90.10
7325;DHT22;3703;48.016;7.802;2023-07-31T13:23:20;25.20;99.90
7325;DHT22;3703;48.016;7.802;2023-07-31T13:25:47;25.30;99.90
7325;DHT22;3703;48.016;7.802;2023-07-31T13:28:14;25.10;99.90
7325;DHT22;3703;48.016;7.802;2023-07-31T13:30:41;24.90;54.10
7325;DHT22;3703;48.016;7.802;2023-07-31T13:33:09;25.10;43.00
7325;DHT22;3703;48.016;7.802;2023-07-31T13:35:37;24.90;29.70
7325;DHT22;3703;48.016;7.802;2023-07-31T13:38:04;24.90;77.10
7325;DHT22;3703;48.016;7.802;2023-07-31T13:40:31;25.00;73.20
7325;DHT22;3703;48.016;7.802;2023-07-31T13:42:58;24.80;99.90
7325;DHT22;3703;48.016;7.802;2023-07-31T13:45:25;24.60;84.20
7325;DHT22;3703;48.016;7.802;2023-07-31T13:47:52;24.80;99.90
7325;DHT22;3703;48.016;7.802;2023-07-31T13:50:21;25.00;99.90
7325;DHT22;3703;48.016;7.802;2023-07-31T13:52:48;25.60;99.90
7325;DHT22;3703;48.016;7.802;2023-07-31T13:55:18;25.70;97.10
7325;DHT22;3703;48.016;7.802;2023-07-31T13:57:45;26.00;56.90
7325;DHT22;3703;48.016;7.802;2023-07-31T14:00:13;25.80;1.00
7325;DHT22;3703;48.016;7.802;2023-07-31T14:02:41;25.80;1.00
7325;DHT22;3703;48.016;7.802;2023-07-31T14:05:08;25.80;1.00
7325;DHT22;3703;48.016;7.802;2023-07-31T14:07:37;25.50;1.00
7325;DHT22;3703;48.016;7.802;2023-07-31T14:10:05;25.30;1.00
7325;DHT22;3703;48.016;7.802;2023-07-31T14:12:32;25.30;1.00
7325;DHT22;3703;48.016;7.802;2023-07-31T14:14:59;25.40;1.00
7325;DHT22;3703;48.016;7.802;2023-07-31T14:17:27;25.30;1.00
7325;DHT22;3703;48.016;7.802;2023-07-31T14:19:54;25.20;1.00
7325;DHT22;3703;48.016;7.802;2023-07-31T14:22:28;25.30;1.00
7325;DHT22;3703;48.016;7.802;2023-07-31T14:24:56;25.10;1.00
7325;DHT22;3703;48.016;7.802;2023-07-31T14:27:24;25.00;1.00
7325;DHT22;3703;48.016;7.802;2023-07-31T14:29:51;25.00;1.00
7325;DHT22;3703;48.016;7.802;2023-07-31T14:32:18;25.10;1.00
7325;DHT22;3703;48.016;7.802;2023-07-31T14:34:45;25.20;1.00
7325;DHT22;3703;48.016;7.802;2023-07-31T14:37:12;25.40;1.00
7325;DHT22;3703;48.016;7.802;2023-07-31T14:39:39;25.50;1.00
7325;DHT22;3703;48.016;7.802;2023-07-31T14:42:08;25.60;1.00
7325;DHT22;3703;48.016;7.802;2023-07-31T14:44:35;25.40;1.00
7325;DHT22;3703;48.016;7.802;2023-07-31T14:47:02;25.40;1.00
7325;DHT22;3703;48.016;7.802;2023-07-31T14:49:30;25.30;1.00
7325;DHT22;3703;48.016;7.802;2023-07-31T14:51:57;25.50;1.00
7325;DHT22;3703;48.016;7.802;2023-07-31T14:54:24;25.40;1.00
7325;DHT22;3703;48.016;7.802;2023-07-31T14:56:51;25.40;1.00
7325;DHT22;3703;48.016;7.802;2023-07-31T14:59:19;25.70;1.00
7325;DHT22;3703;48.016;7.802;2023-07-31T15:01:46;25.70;1.00
7325;DHT22;3703;48.016;7.802;2023-07-31T15:04:14;25.70;1.00
7325;DHT22;3703;48.016;7.802;2023-07-31T15:06:41;25.70;1.00
7325;DHT22;3703;48.016;7.802;2023-07-31T15:09:08;25.40;1.00
7325;DHT22;3703;48.016;7.802;2023-07-31T15:11:35;25.60;1.00
7325;DHT22;3703;48.016;7.802;2023-07-31T15:14:02;25.60;1.00
7325;DHT22;3703;48.016;7.802;2023-07-31T15:16:31;25.90;1.00
7325;DHT22;3703;48.016;7.802;2023-07-31T15:18:58;25.70;1.00
7325;DHT22;3703;48.016;7.802;2023-07-31T15:21:25;25.70;1.00
7325;DHT22;3703;48.016;7.802;2023-07-31T15:23:52;25.80;1.00
7325;DHT22;3703;48.016;7.802;2023-07-31T15:26:19;25.80;1.00
7325;DHT22;3703;48.016;7.802;2023-07-31T15:28:49;25.70;1.00
7325;DHT22;3703;48.016;7.802;2023-07-31T15:31:22;24.50;1.00
7325;DHT22;3703;48.016;7.802;2023-07-31T15:33:50;25.60;1.00
7325;DHT22;3703;48.016;7.802;2023-07-31T15:36:18;25.60;1.00
7325;DHT22;3703;48.016;7.802;2023-07-31T15:38:45;25.60;1.00
7325;DHT22;3703;48.016;7.802;2023-07-31T15:41:16;25.40;1.00
7325;DHT22;3703;48.016;7.802;2023-07-31T15:43:43;25.30;1.00
7325;DHT22;3703;48.016;7.802;2023-07-31T15:46:10;25.10;1.00
7325;DHT22;3703;48.016;7.802;2023-07-31T15:48:37;25.00;1.00
7325;DHT22;3703;48.016;7.802;2023-07-31T15:51:06;25.00;1.00
7325;DHT22;3703;48.016;7.802;2023-07-31T15:53:33;25.10;1.00
7325;DHT22;3703;48.016;7.802;2023-07-31T15:56:00;25.00;1.00
7325;DHT22;3703;48.016;7.802;2023-07-31T15:58:27;25.00;1.00
7325;DHT22;3703;48.016;7.802;2023-07-31T16:00:54;25.10;1.00
7325;DHT22;3703;48.016;7.802;2023-07-31T16:03:21;25.00;1.00
7325;DHT22;3703;48.016;7.802;2023-07-31T16:05:49;24.70;1.00
7325;DHT22;3703;48.016;7.802;2023-07-31T16:08:17;24.50;1.00
7325;DHT22;3703;48.016;7.802;2023-07-31T16:10:44;24.30;1.00
7325;DHT22;3703;48.016;7.802;2023-07-31T16:13:11;24.20;99.70
7325;DHT22;3703;48.016;7.802;2023-07-31T16:15:38;24.20;99.90
7325;DHT22;3703;48.016;7.802;2023-07-31T16:18:05;23.80;99.90
7325;DHT22;3703;48.016;7.802;2023-07-31T16:20:33;23.90;99.90
7325;DHT22;3703;48.016;7.802;2023-07-31T16:23:01;24.00;1.00
7325;DHT22;3703;48.016;7.802;2023-07-31T16:25:30;23.80;1.00
7325;DHT22;3703;48.016;7.802;2023-07-31T16:27:57;23.80;1.00
7325;DHT22;3703;48.016;7.802;2023-07-31T16:30:24;23.80;1.00
7325;DHT22;3703;48.016;7.802;2023-07-31T16:32:52;24.00;1.00
7325;DHT22;3703;48.016;7.802;2023-07-31T16:35:19;24.20;1.00
7325;DHT22;3703;48.016;7.802;2023-07-31T16:37:46;24.50;1.00
7325;DHT22;3703;48.016;7.802;2023-07-31T16:40:16;24.30;1.00
7325;DHT22;3703;48.016;7.802;2023-07-31T16:42:44;24.30;1.00
7325;DHT22;3703;48.016;7.802;2023-07-31T16:45:12;24.10;1.00
7325;DHT22;3703;48.016;7.802;2023-07-31T16:47:39;24.10;1.00
7325;DHT22;3703;48.016;7.802;2023-07-31T16:50:07;24.10;24.80
7325;DHT22;3703;48.016;7.802;2023-07-31T16:52:35;24.30;1.00
7325;DHT22;3703;48.016;7.802;2023-07-31T16:55:02;24.20;83.00
7325;DHT22;3703;48.016;7.802;2023-07-31T16:57:29;24.20;88.20
7325;DHT22;3703;48.016;7.802;2023-07-31T16:59:58;24.00;99.90
7325;DHT22;3703;48.016;7.802;2023-07-31T17:02:25;24.00;99.90
7325;DHT22;3703;48.016;7.802;2023-07-31T17:04:52;24.20;99.90
7325;DHT22;3703;48.016;7.802;2023-07-31T17:07:19;24.30;99.90
7325;DHT22;3703;48.016;7.802;2023-07-31T17:09:47;24.20;99.90
7325;DHT22;3703;48.016;7.802;2023-07-31T17:12:14;24.20;99.90
7325;DHT22;3703;48.016;7.802;2023-07-31T17:14:41;24.10;99.90
7325;DHT22;3703;48.016;7.802;2023-07-31T17:17:10;24.10;99.90
7325;DHT22;3703;48.016;7.802;2023-07-31T17:19:37;24.10;99.90
7325;DHT22;3703;48.016;7.802;2023-07-31T17:22:05;23.90;99.90
7325;DHT22;3703;48.016;7.802;2023-07-31T17:24:32;23.80;1.00
7325;DHT22;3703;48.016;7.802;2023-07-31T17:26:59;24.00;1.00
7325;DHT22;3703;48.016;7.802;2023-07-31T17:29:28;24.00;1.00
7325;DHT22;3703;48.016;7.802;2023-07-31T17:31:55;24.40;1.00
7325;DHT22;3703;48.016;7.802;2023-07-31T17:34:24;23.80;1.00
7325;DHT22;3703;48.016;7.802;2023-07-31T17:36:51;23.80;1.00
7325;DHT22;3703;48.016;7.802;2023-07-31T17:39:18;23.70;1.00
7325;DHT22;3703;48.016;7.802;2023-07-31T17:41:45;23.80;1.00
7325;DHT22;3703;48.016;7.802;2023-07-31T17:44:12;23.90;1.00